AIRPORT ID: 9S5

DATE: 2024-04-25 ZULU TIME: 7.55 LOCAL TIME: 1.55


METAR K9S5 250755Z AUTO 00000KT 10SM 12/04 A2986

ALTIMETER: A2986 Q1011

DENSITY ALT: 4700 Ft

WIND DIRECT: 340

WIND SPEED: 2 Gust

WIND CONDITIONS:

VISIBILTY: 10SM 9999M

TEMPERATURE: 54 F 12 C

DEW POINT: 39 F 4 C

HUMID: 56%

LCL: Above 5,000 feet

RADIO CHECK: 0

ADVISARIES: 0

GREETINGS: 0

CONVERSATIONS: 0